Time;durP1;ratioP1;P1;durP2;ratioP2;P2;SDS_P1;SDS_P2;PMS_P1;PMS_P2;Temp;Humidity;BMP_temperature;BMP_pressure;BME280_temperature;BME280_humidity;BME280_pressure;Samples;Min_cycle;Max_cycle;Signal;HPM_P1;HPM_P2
2022/05/17 00:00:11;;;;;;;3.47;3.17;;;14.00;99.90;;;;;;5070444;28;20912;-70
2022/05/17 00:02:37;;;;;;;6.70;3.37;;;13.90;99.90;;;;;;5071304;28;20482;-70
2022/05/17 00:05:05;;;;;;;4.10;3.20;;;13.80;99.90;;;;;;5071126;28;20465;-70
2022/05/17 00:07:32;;;;;;;3.80;3.50;;;13.80;99.90;;;;;;5111476;22;20479;-94
2022/05/17 00:09:59;;;;;;;4.77;3.07;;;13.80;99.90;;;;;;5057606;28;20461;-93
2022/05/17 00:12:32;;;;;;;5.00;3.63;;;13.80;99.90;;;;;;5057782;28;20495;-92
2022/05/17 00:15:01;;;;;;;4.00;3.00;;;13.80;99.90;;;;;;5060218;28;20527;-92
2022/05/17 00:17:28;;;;;;;3.90;3.20;;;13.80;99.90;;;;;;5059950;28;20473;-92
2022/05/17 00:19:55;;;;;;;5.73;3.63;;;13.80;99.90;;;;;;5058592;28;20482;-93
2022/05/17 00:22:22;;;;;;;3.50;3.20;;;13.70;99.90;;;;;;5061753;28;20547;-92
2022/05/17 00:27:52;;;;;;;4.23;3.30;;;13.80;99.90;;;;;;5018277;28;20461;-91
2022/05/17 00:33:33;;;;;;;4.73;3.40;;;13.80;99.90;;;;;;5041415;28;20458;-93
2022/05/17 00:39:09;;;;;;;6.27;3.47;;;13.90;99.90;;;;;;5044133;28;20796;-92
2022/05/17 00:41:36;;;;;;;4.40;3.13;;;13.90;99.90;;;;;;5060844;28;20578;-93
2022/05/17 00:46:56;;;;;;;6.90;3.90;;;13.90;99.90;;;;;;5061713;28;20451;-92
2022/05/17 00:49:29;;;;;;;4.80;3.53;;;13.90;99.90;;;;;;5061988;28;20537;-92
2022/05/17 00:52:03;;;;;;;5.07;3.90;;;13.90;99.90;;;;;;5062467;28;20472;-93
2022/05/17 00:54:31;;;;;;;7.53;3.60;;;13.90;99.90;;;;;;5063569;28;20463;-92
2022/05/17 00:57:03;;;;;;;5.47;4.20;;;13.90;99.90;;;;;;5063415;28;20456;-93
2022/05/17 00:59:44;;;;;;;4.43;3.50;;;13.80;99.90;;;;;;5063199;28;21086;-93
2022/05/17 01:02:13;;;;;;;6.03;3.63;;;13.90;99.90;;;;;;5062253;28;20479;-93
2022/05/17 01:04:41;;;;;;;4.47;3.23;;;13.80;99.90;;;;;;5059273;28;20542;-95
2022/05/17 01:07:11;;;;;;;3.63;3.33;;;13.80;99.90;;;;;;5058768;28;20471;-94
2022/05/17 01:09:38;;;;;;;4.70;4.20;;;13.70;99.90;;;;;;5058018;28;20473;-94
2022/05/17 01:12:06;;;;;;;7.20;3.90;;;13.70;99.90;;;;;;5060120;28;20534;-93
2022/05/17 01:17:18;;;;;;;4.93;3.47;;;13.60;99.90;;;;;;5059403;28;20462;-93
2022/05/17 01:22:37;;;;;;;4.80;3.40;;;13.50;99.90;;;;;;5045606;28;20459;-93
2022/05/17 01:25:05;;;;;;;3.87;3.40;;;13.50;99.90;;;;;;5062951;28;20477;-92
2022/05/17 01:27:37;;;;;;;3.53;3.20;;;13.50;99.90;;;;;;5062597;28;20489;-93
2022/05/17 01:30:06;;;;;;;4.03;3.37;;;13.40;99.90;;;;;;5067768;28;20468;-94
2022/05/17 01:32:34;;;;;;;5.60;3.57;;;13.40;99.90;;;;;;5068869;28;20479;-94
2022/05/17 01:35:01;;;;;;;3.40;3.10;;;13.40;99.90;;;;;;5066295;28;20494;-94
2022/05/17 01:37:28;;;;;;;4.07;3.27;;;13.30;99.90;;;;;;5080345;28;20781;-94
2022/05/17 01:39:56;;;;;;;3.90;3.50;;;13.20;99.90;;;;;;5078263;28;20451;-95
2022/05/17 01:42:23;;;;;;;4.63;3.40;;;13.20;99.90;;;;;;5067180;28;20522;-93
2022/05/17 01:44:50;;;;;;;4.70;3.40;;;13.10;99.90;;;;;;5066321;28;20546;-93
2022/05/17 01:47:17;;;;;;;3.60;3.30;;;13.10;99.90;;;;;;5067211;28;20834;-93
2022/05/17 01:49:44;;;;;;;3.63;3.33;;;13.00;99.90;;;;;;5067555;28;20494;-93
2022/05/17 01:52:11;;;;;;;5.03;3.17;;;13.00;99.90;;;;;;5067300;28;20895;-93
2022/05/17 01:54:38;;;;;;;4.07;3.43;;;13.00;99.90;;;;;;5066544;28;20482;-93
2022/05/17 01:57:07;;;;;;;3.90;3.43;;;12.90;99.90;;;;;;5066894;28;20474;-92
2022/05/17 02:02:15;;;;;;;4.93;3.03;;;12.90;99.90;;;;;;5064695;28;20489;-93
2022/05/17 02:04:42;;;;;;;4.93;3.30;;;12.90;99.90;;;;;;5067463;28;20462;-93
2022/05/17 02:07:10;;;;;;;3.90;3.50;;;12.80;99.90;;;;;;5067777;28;20478;-94
2022/05/17 02:09:37;;;;;;;4.00;3.40;;;12.80;99.90;;;;;;5066070;28;20466;-93
2022/05/17 02:12:05;;;;;;;3.67;3.20;;;12.80;99.90;;;;;;5067295;28;20487;-93
2022/05/17 02:14:33;;;;;;;4.00;3.57;;;12.80;99.90;;;;;;5066411;28;20462;-93
2022/05/17 02:17:00;;;;;;;8.37;3.80;;;12.70;99.90;;;;;;5066637;28;20463;-93
2022/05/17 02:19:30;;;;;;;3.97;3.30;;;12.70;99.90;;;;;;5066778;28;20566;-93
2022/05/17 02:21:56;;;;;;;4.30;3.57;;;12.70;99.90;;;;;;5068744;28;20510;-94
2022/05/17 02:24:23;;;;;;;4.50;3.50;;;12.70;99.90;;;;;;5068982;28;20463;-94
2022/05/17 02:26:50;;;;;;;6.70;4.05;;;12.70;99.90;;;;;;5068696;28;20459;-93
2022/05/17 02:29:23;;;;;;;4.30;3.83;;;12.70;99.90;;;;;;5067915;28;20205;-92
2022/05/17 02:31:54;;;;;;;4.10;3.50;;;12.60;99.90;;;;;;5067463;28;20487;-94
2022/05/17 02:34:29;;;;;;;4.90;3.40;;;12.60;99.90;;;;;;5067719;28;20582;-93
2022/05/17 02:36:56;;;;;;;3.97;3.60;;;12.60;99.90;;;;;;5067260;28;20481;-92
2022/05/17 02:39:34;;;;;;;4.00;3.60;;;12.60;99.90;;;;;;5065873;28;20473;-93
2022/05/17 02:42:01;;;;;;;4.90;4.07;;;12.70;99.90;;;;;;5065469;22;20527;-72
2022/05/17 02:44:28;;;;;;;3.77;3.37;;;12.70;99.90;;;;;;5058792;28;20972;-73
2022/05/17 02:46:57;;;;;;;3.90;3.22;;;12.60;99.90;;;;;;5072667;28;20465;-71
2022/05/17 02:49:24;;;;;;;3.77;3.17;;;12.60;99.90;;;;;;5071745;28;20312;-71
2022/05/17 02:51:50;;;;;;;3.80;3.20;;;12.60;99.90;;;;;;5072609;28;20491;-73
2022/05/17 02:54:17;;;;;;;3.57;3.27;;;12.60;99.90;;;;;;5072264;28;20459;-72
2022/05/17 02:56:44;;;;;;;5.10;3.60;;;12.60;99.90;;;;;;5072262;28;21215;-72
2022/05/17 02:59:12;;;;;;;3.80;3.50;;;12.50;99.90;;;;;;5071684;28;20490;-74
2022/05/17 03:01:39;;;;;;;4.27;3.87;;;12.50;99.90;;;;;;5072135;28;20548;-73
2022/05/17 03:04:07;;;;;;;4.37;3.43;;;12.50;99.90;;;;;;5072485;28;20458;-72
2022/05/17 03:06:33;;;;;;;4.33;3.93;;;12.40;99.90;;;;;;5072217;28;20462;-73
2022/05/17 03:09:00;;;;;;;5.50;4.00;;;12.40;99.90;;;;;;5071646;28;20459;-71
2022/05/17 03:11:27;;;;;;;3.93;3.33;;;12.40;99.90;;;;;;5071805;28;20474;-72
2022/05/17 03:13:53;;;;;;;4.20;3.73;;;12.40;99.90;;;;;;5072017;28;20985;-73
2022/05/17 03:16:20;;;;;;;4.63;3.70;;;12.40;99.90;;;;;;5071832;28;20462;-72
2022/05/17 03:18:47;;;;;;;4.03;3.60;;;12.40;99.90;;;;;;5071341;28;20469;-72
2022/05/17 03:21:15;;;;;;;5.47;3.50;;;12.40;99.90;;;;;;5071832;28;20565;-72
2022/05/17 03:23:42;;;;;;;3.83;3.43;;;12.50;99.90;;;;;;5071749;28;20470;-72
2022/05/17 03:26:08;;;;;;;4.00;3.60;;;12.40;99.90;;;;;;5072064;28;20957;-73
2022/05/17 03:28:35;;;;;;;4.78;3.90;;;12.40;99.90;;;;;;5071663;28;20501;-72
2022/05/17 03:31:02;;;;;;;3.70;3.40;;;12.30;99.90;;;;;;5072006;28;20208;-73
2022/05/17 03:33:28;;;;;;;4.60;3.30;;;12.20;99.90;;;;;;5055661;28;20968;-72
2022/05/17 03:35:55;;;;;;;4.23;3.83;;;12.20;99.90;;;;;;5051664;28;20873;-73
2022/05/17 03:38:23;;;;;;;4.60;3.60;;;12.10;99.90;;;;;;5048530;28;20455;-72
2022/05/17 03:40:50;;;;;;;4.83;4.43;;;12.10;99.90;;;;;;5041025;28;20456;-73
2022/05/17 03:43:17;;;;;;;4.80;3.70;;;12.10;99.90;;;;;;5044256;28;20526;-71
2022/05/17 03:45:44;;;;;;;4.13;3.70;;;12.10;99.90;;;;;;5032020;28;20471;-73
2022/05/17 03:48:10;;;;;;;4.47;3.63;;;12.10;99.90;;;;;;5030977;28;20612;-73
2022/05/17 03:50:38;;;;;;;4.20;3.70;;;12.10;99.90;;;;;;5031423;28;20457;-74
2022/05/17 03:53:05;;;;;;;4.30;3.90;;;12.10;99.90;;;;;;5030887;28;20843;-73
2022/05/17 03:55:33;;;;;;;4.20;3.80;;;12.10;99.90;;;;;;5031395;28;20472;-73
2022/05/17 03:58:00;;;;;;;4.50;4.10;;;12.10;99.90;;;;;;5029572;28;20456;-74
2022/05/17 04:00:27;;;;;;;4.55;4.15;;;12.10;99.90;;;;;;5035918;28;20495;-75
2022/05/17 04:02:53;;;;;;;7.33;3.90;;;12.10;99.90;;;;;;5050689;28;20231;-73
2022/05/17 04:05:21;;;;;;;5.30;3.97;;;12.20;99.90;;;;;;5048058;28;20456;-73
2022/05/17 04:07:48;;;;;;;4.70;3.93;;;12.20;99.90;;;;;;5051114;28;20463;-73
2022/05/17 04:10:16;;;;;;;5.15;4.22;;;12.20;99.90;;;;;;5050318;28;20451;-73
2022/05/17 04:12:45;;;;;;;5.63;3.47;;;12.20;99.90;;;;;;5042819;28;20225;-73
2022/05/17 04:15:15;;;;;;;4.43;3.90;;;12.20;99.90;;;;;;5030535;28;20962;-72
2022/05/17 04:17:42;;;;;;;5.77;3.20;;;12.20;99.90;;;;;;5031327;28;20457;-71
2022/05/17 04:20:11;;;;;;;4.13;3.73;;;12.20;99.90;;;;;;5037838;28;20487;-73
2022/05/17 04:22:41;;;;;;;4.43;3.53;;;12.20;99.90;;;;;;5038376;28;20614;-72
2022/05/17 04:25:08;;;;;;;4.77;3.77;;;12.20;99.90;;;;;;5048966;28;20863;-72
2022/05/17 04:27:35;;;;;;;4.63;4.23;;;12.10;99.90;;;;;;5050433;28;20529;-71
2022/05/17 04:30:04;;;;;;;4.90;4.40;;;12.10;99.90;;;;;;5050079;28;20459;-73
2022/05/17 04:32:31;;;;;;;5.43;3.90;;;12.10;99.90;;;;;;5050605;28;20486;-73
2022/05/17 04:34:59;;;;;;;4.70;4.03;;;12.10;99.90;;;;;;5051081;28;20464;-72
2022/05/17 04:37:26;;;;;;;4.63;4.22;;;12.20;99.90;;;;;;5050770;28;20490;-73
2022/05/17 04:39:53;;;;;;;4.87;4.10;;;12.20;99.90;;;;;;5050515;28;20201;-72
2022/05/17 04:42:20;;;;;;;5.27;4.00;;;12.20;99.90;;;;;;5050522;28;20495;-71
2022/05/17 04:44:46;;;;;;;4.17;3.70;;;12.30;99.90;;;;;;5050799;28;20467;-72
2022/05/17 04:47:14;;;;;;;4.82;4.40;;;12.40;99.90;;;;;;5094689;22;20486;-73
2022/05/17 04:49:41;;;;;;;4.45;4.05;;;12.50;99.90;;;;;;5008004;28;20583;-73
2022/05/17 04:52:09;;;;;;;5.17;4.50;;;12.60;99.90;;;;;;5007658;28;20666;-73
2022/05/17 04:54:36;;;;;;;5.23;4.03;;;12.60;99.90;;;;;;5008519;28;20909;-73
2022/05/17 04:57:04;;;;;;;4.80;4.40;;;12.70;99.90;;;;;;5007707;28;20874;-75
2022/05/17 04:59:31;;;;;;;4.40;4.00;;;12.80;99.90;;;;;;5007407;28;20820;-72
2022/05/17 05:01:57;;;;;;;4.70;4.30;;;12.80;99.90;;;;;;5008110;28;20489;-72
2022/05/17 05:04:25;;;;;;;5.00;4.57;;;12.90;99.90;;;;;;5008119;28;20819;-73
2022/05/17 05:06:52;;;;;;;4.23;3.83;;;13.00;99.90;;;;;;5007997;28;20944;-74
2022/05/17 05:09:19;;;;;;;4.17;3.77;;;13.10;99.90;;;;;;5007483;28;20468;-75
2022/05/17 05:11:46;;;;;;;5.90;4.67;;;13.20;99.90;;;;;;5008254;28;20559;-73
2022/05/17 05:14:13;;;;;;;5.13;4.50;;;13.20;99.90;;;;;;5007978;28;20465;-71
2022/05/17 05:16:39;;;;;;;4.60;4.20;;;13.30;99.90;;;;;;5008302;28;20839;-71
2022/05/17 05:19:06;;;;;;;5.10;4.07;;;13.40;99.90;;;;;;5007258;28;20465;-72
2022/05/17 05:21:34;;;;;;;6.47;4.63;;;13.50;99.90;;;;;;5034342;22;20975;-73
2022/05/17 05:24:04;;;;;;;4.43;4.03;;;13.70;99.90;;;;;;5087312;28;21127;-74
2022/05/17 05:26:32;;;;;;;5.43;4.07;;;13.70;99.90;;;;;;5090702;28;20798;-75
2022/05/17 05:28:59;;;;;;;5.50;4.40;;;13.90;99.90;;;;;;5089638;28;20466;-75
2022/05/17 05:31:26;;;;;;;4.73;4.10;;;14.00;99.90;;;;;;5090499;28;20473;-75
2022/05/17 05:33:52;;;;;;;5.13;4.63;;;14.10;99.90;;;;;;5090813;28;20453;-75
2022/05/17 05:36:19;;;;;;;6.57;5.80;;;14.20;99.90;;;;;;5090500;28;20979;-72
2022/05/17 05:38:47;;;;;;;7.00;5.50;;;14.40;99.90;;;;;;5090042;28;20457;-73
2022/05/17 05:41:14;;;;;;;6.60;5.90;;;14.50;99.90;;;;;;5090175;28;20460;-73
2022/05/17 05:43:41;;;;;;;7.03;5.60;;;14.60;99.90;;;;;;5090292;28;20464;-74
2022/05/17 05:46:08;;;;;;;6.30;4.97;;;14.80;99.90;;;;;;5090212;28;20454;-75
2022/05/17 05:48:36;;;;;;;6.37;5.73;;;15.00;99.90;;;;;;5089529;28;20485;-75
2022/05/17 05:51:03;;;;;;;6.10;5.50;;;15.10;99.90;;;;;;5090277;28;20454;-75
2022/05/17 05:53:30;;;;;;;6.20;5.60;;;15.20;99.90;;;;;;5090436;28;20935;-75
2022/05/17 05:56:01;;;;;;;7.30;5.47;;;15.40;99.90;;;;;;5090312;28;20837;-75
2022/05/17 05:58:28;;;;;;;5.73;5.03;;;15.50;99.90;;;;;;5089328;28;20827;-75
2022/05/17 06:00:55;;;;;;;5.67;5.17;;;15.60;99.90;;;;;;5090335;28;20461;-75
2022/05/17 06:03:22;;;;;;;5.63;5.13;;;15.80;99.90;;;;;;5089837;28;20996;-75
2022/05/17 06:05:48;;;;;;;6.67;5.67;;;15.90;99.90;;;;;;5090574;28;20844;-74
2022/05/17 06:08:16;;;;;;;8.37;5.73;;;16.10;99.90;;;;;;5089911;28;20457;-75
2022/05/17 06:10:44;;;;;;;6.67;5.93;;;16.30;99.90;;;;;;5094110;28;20480;-75
2022/05/17 06:13:14;;;;;;;6.40;5.70;;;16.40;99.90;;;;;;5092909;28;20473;-76
2022/05/17 06:15:41;;;;;;;7.70;5.13;;;16.50;99.90;;;;;;5091880;28;21002;-77
2022/05/17 06:18:09;;;;;;;7.13;6.13;;;16.60;99.90;;;;;;5093293;28;20453;-75
2022/05/17 06:20:37;;;;;;;6.50;5.70;;;16.70;99.90;;;;;;5092981;28;20462;-75
2022/05/17 06:23:04;;;;;;;5.60;5.10;;;16.80;99.90;;;;;;5027247;28;20492;-76
2022/05/17 06:25:31;;;;;;;7.63;5.20;;;16.90;99.90;;;;;;5009638;28;20465;-75
2022/05/17 06:27:58;;;;;;;7.63;5.60;;;17.00;99.90;;;;;;5009883;28;20868;-74
2022/05/17 06:30:26;;;;;;;9.17;5.30;;;17.10;99.90;;;;;;5009475;28;20469;-74
2022/05/17 06:32:53;;;;;;;6.20;5.27;;;17.20;99.90;;;;;;5009760;28;20481;-74
2022/05/17 06:35:21;;;;;;;6.00;5.50;;;17.30;99.90;;;;;;5008026;28;20465;-75
2022/05/17 06:37:48;;;;;;;6.10;5.60;;;17.30;99.90;;;;;;5009730;28;20806;-75
2022/05/17 06:40:16;;;;;;;6.00;5.40;;;17.40;99.90;;;;;;5009693;28;20523;-74
2022/05/17 06:42:43;;;;;;;6.33;5.30;;;17.40;99.90;;;;;;5009669;28;20863;-75
2022/05/17 06:45:12;;;;;;;6.20;5.27;;;17.50;99.90;;;;;;5009541;28;20464;-75
2022/05/17 06:47:41;;;;;;;6.37;5.37;;;17.60;99.90;;;;;;5009227;28;21016;-75
2022/05/17 06:50:10;;;;;;;7.43;5.30;;;17.70;99.90;;;;;;5009437;28;20461;-76
2022/05/17 06:52:37;;;;;;;7.90;6.07;;;17.80;99.90;;;;;;5009658;28;20918;-76
2022/05/17 06:55:06;;;;;;;9.27;5.83;;;17.90;99.90;;;;;;5008384;28;20470;-75
2022/05/17 06:57:33;;;;;;;9.73;5.77;;;18.00;99.90;;;;;;5008541;28;20514;-74
2022/05/17 07:00:00;;;;;;;7.83;6.80;;;18.10;99.90;;;;;;5008810;28;20468;-75
2022/05/17 07:02:27;;;;;;;8.63;6.57;;;18.20;99.90;;;;;;5009535;28;20859;-75
2022/05/17 07:04:55;;;;;;;9.50;6.13;;;18.30;99.90;;;;;;5009743;28;20974;-73
2022/05/17 07:07:26;;;;;;;9.20;6.83;;;18.40;99.90;;;;;;5009224;28;20466;-74
2022/05/17 07:15:32;;;;;;;7.90;6.00;;;18.60;99.90;;;;;;4948437;29;20908;-75
2022/05/17 07:18:00;;;;;;;8.10;6.03;;;18.60;99.90;;;;;;4994183;28;20465;-75
2022/05/17 07:20:28;;;;;;;6.60;5.50;;;18.70;99.90;;;;;;5008515;28;20482;-74
2022/05/17 07:22:55;;;;;;;7.90;6.37;;;18.80;99.90;;;;;;5009064;28;20870;-73
2022/05/17 07:25:22;;;;;;;7.03;5.90;;;18.90;99.90;;;;;;5008826;28;20461;-74
2022/05/17 07:27:50;;;;;;;7.60;5.80;;;19.10;99.90;;;;;;5009055;28;20836;-73
2022/05/17 07:30:16;;;;;;;8.20;6.73;;;19.20;99.90;;;;;;5008398;28;20465;-74
2022/05/17 07:32:43;;;;;;;7.43;6.47;;;19.20;99.90;;;;;;5008938;28;21000;-74
2022/05/17 07:35:10;;;;;;;8.60;6.37;;;19.20;99.90;;;;;;5008534;28;20486;-74
2022/05/17 07:37:38;;;;;;;7.33;6.50;;;19.20;99.90;;;;;;5008770;28;20465;-73
2022/05/17 07:40:06;;;;;;;6.27;5.67;;;19.30;99.90;;;;;;5008238;28;20472;-75
2022/05/17 07:42:33;;;;;;;8.13;5.67;;;19.40;99.90;;;;;;5008443;28;20521;-73
2022/05/17 07:45:00;;;;;;;6.53;5.87;;;19.40;99.90;;;;;;5008094;28;20963;-72
2022/05/17 07:47:27;;;;;;;6.60;6.00;;;19.60;99.90;;;;;;5008663;28;20466;-73
2022/05/17 07:49:53;;;;;;;7.13;5.80;;;19.70;99.90;;;;;;5005839;28;21015;-71
2022/05/17 07:52:20;;;;;;;9.07;6.27;;;19.80;99.90;;;;;;5008751;28;20500;-72
2022/05/17 07:54:48;;;;;;;7.87;7.03;;;19.90;99.90;;;;;;5008433;28;20469;-72
2022/05/17 07:57:15;;;;;;;11.53;5.20;;;20.00;99.90;;;;;;5008234;28;20619;-72
2022/05/17 07:59:43;;;;;;;6.80;6.10;;;20.10;99.90;;;;;;5007377;28;20468;-75
2022/05/17 08:02:10;;;;;;;6.60;6.00;;;20.30;99.90;;;;;;5008547;28;20481;-75
2022/05/17 08:04:36;;;;;;;10.63;5.93;;;20.40;99.90;;;;;;5007915;28;20465;-75
2022/05/17 08:07:03;;;;;;;7.33;5.83;;;20.40;99.90;;;;;;5008368;28;20465;-74
2022/05/17 08:09:30;;;;;;;6.70;5.40;;;20.40;99.90;;;;;;5007057;28;20466;-76
2022/05/17 08:11:58;;;;;;;5.77;5.17;;;20.40;99.90;;;;;;5008158;28;20477;-74
2022/05/17 08:14:25;;;;;;;8.23;4.97;;;20.40;99.90;;;;;;5008646;28;20465;-74
2022/05/17 08:16:52;;;;;;;6.27;5.67;;;20.30;99.90;;;;;;5009172;28;20461;-78
2022/05/17 08:19:19;;;;;;;6.67;5.50;;;20.30;99.90;;;;;;5006879;28;20465;-78
2022/05/17 08:21:46;;;;;;;7.63;4.60;;;20.40;99.90;;;;;;5008476;28;20489;-78
2022/05/17 08:24:13;;;;;;;5.93;5.33;;;20.50;99.90;;;;;;5007920;28;20489;-78
2022/05/17 08:29:33;;;;;;;7.00;4.97;;;20.60;99.90;;;;;;4971737;28;20967;-76
2022/05/17 08:34:45;;;;;;;6.43;4.20;;;20.80;99.90;;;;;;5007530;28;20947;-75
2022/05/17 08:37:12;;;;;;;5.37;4.87;;;21.10;99.90;;;;;;5007586;28;20468;-75
2022/05/17 08:39:38;;;;;;;4.70;4.23;;;21.30;99.90;;;;;;5007860;28;20971;-75
2022/05/17 08:42:15;;;;;;;5.23;4.30;;;21.50;99.90;;;;;;5008212;28;20477;-76
2022/05/17 08:44:48;;;;;;;11.87;5.67;;;21.80;99.90;;;;;;5007365;28;20492;-75
2022/05/17 08:47:22;;;;;;;5.87;4.80;;;22.00;99.90;;;;;;5007392;28;20461;-78
2022/05/17 08:49:56;;;;;;;5.30;4.67;;;22.30;99.90;;;;;;5007413;28;20465;-78
2022/05/17 08:52:25;;;;;;;8.70;4.73;;;22.50;99.90;;;;;;5006615;28;21007;-79
2022/05/17 08:54:56;;;;;;;7.83;4.90;;;22.70;99.90;;;;;;5007592;28;20465;-78
2022/05/17 08:57:30;;;;;;;4.70;4.07;;;22.80;99.90;;;;;;5006858;28;20465;-76
2022/05/17 09:00:04;;;;;;;8.53;5.00;;;22.70;99.90;;;;;;5006173;28;20968;-77
2022/05/17 09:02:40;;;;;;;5.00;4.50;;;22.60;99.90;;;;;;5006019;28;20488;-75
2022/05/17 09:05:16;;;;;;;6.10;4.70;;;22.70;99.90;;;;;;5006482;28;20472;-77
2022/05/17 09:07:50;;;;;;;5.03;4.50;;;22.80;99.90;;;;;;5006787;28;20476;-76
2022/05/17 09:10:28;;;;;;;5.20;4.30;;;23.00;99.90;;;;;;5005812;28;20456;-77
2022/05/17 09:13:01;;;;;;;5.90;4.10;;;23.40;99.90;;;;;;5006359;28;20480;-75
2022/05/17 09:15:30;;;;;;;4.67;4.23;;;23.60;99.90;;;;;;5006211;28;20457;-76
2022/05/17 09:17:59;;;;;;;5.47;4.97;;;23.90;99.90;;;;;;5006058;28;20458;-77
2022/05/17 09:20:32;;;;;;;6.30;4.20;;;24.00;99.90;;;;;;5006455;28;20482;-76
2022/05/17 09:22:59;;;;;;;4.17;3.53;;;24.30;99.90;;;;;;5007797;28;20558;-76
2022/05/17 09:25:44;;;;;;;5.07;4.57;;;24.30;99.90;;;;;;5005904;28;20470;-76
2022/05/17 09:28:11;;;;;;;6.23;3.97;;;24.30;97.90;;;;;;5006352;28;20556;-76
2022/05/17 09:30:39;;;;;;;4.70;3.77;;;24.00;99.00;;;;;;5003262;28;20469;-75
2022/05/17 09:33:09;;;;;;;6.77;4.60;;;23.80;99.10;;;;;;5006634;28;20481;-77
2022/05/17 09:35:42;;;;;;;4.90;3.50;;;24.10;99.90;;;;;;5005906;28;20465;-77
2022/05/17 09:38:09;;;;;;;4.57;4.17;;;24.40;99.60;;;;;;5005445;28;20855;-77
2022/05/17 09:40:40;;;;;;;3.93;3.30;;;24.80;99.90;;;;;;5005991;28;20469;-76
2022/05/17 09:43:08;;;;;;;4.90;3.90;;;25.00;99.90;;;;;;5007299;28;20502;-76
2022/05/17 09:45:49;;;;;;;4.07;3.67;;;25.20;99.30;;;;;;5009034;28;20494;-75
2022/05/17 09:48:30;;;;;;;4.47;3.47;;;25.20;99.30;;;;;;5009008;28;20917;-75
2022/05/17 09:53:44;;;;;;;4.10;3.70;;;25.50;99.10;;;;;;5008675;28;20554;-75
2022/05/17 09:56:12;;;;;;;3.73;3.43;;;25.90;97.70;;;;;;5010185;28;20824;-75
2022/05/17 09:58:41;;;;;;;3.47;3.17;;;26.20;97.70;;;;;;5010103;28;20473;-75
2022/05/17 10:01:14;;;;;;;3.23;3.03;;;26.50;96.40;;;;;;5008023;28;20472;-75
2022/05/17 10:03:43;;;;;;;4.33;3.63;;;26.70;96.70;;;;;;5009132;28;20485;-75
2022/05/17 10:06:16;;;;;;;6.03;3.70;;;26.90;96.30;;;;;;5010163;28;20458;-75
2022/05/17 10:08:49;;;;;;;3.50;3.20;;;26.80;95.40;;;;;;5009012;28;20468;-75
2022/05/17 10:11:20;;;;;;;3.30;3.00;;;26.60;95.40;;;;;;5009863;28;20881;-75
2022/05/17 10:14:04;;;;;;;4.23;3.77;;;26.50;95.90;;;;;;5009689;28;20465;-75
2022/05/17 10:16:38;;;;;;;4.80;3.93;;;26.50;96.50;;;;;;5009219;28;20465;-75
2022/05/17 10:19:10;;;;;;;4.00;3.10;;;26.80;96.40;;;;;;5009679;28;20497;-75
2022/05/17 10:21:44;;;;;;;3.60;3.30;;;26.80;96.60;;;;;;5009468;28;20862;-75
2022/05/17 10:24:19;;;;;;;3.67;3.27;;;27.20;96.40;;;;;;5009454;28;20495;-75
2022/05/17 10:26:50;;;;;;;7.03;3.07;;;27.20;94.90;;;;;;5009444;28;20491;-75
2022/05/17 10:29:26;;;;;;;3.27;2.80;;;26.90;94.80;;;;;;5009138;28;20461;-75
2022/05/17 10:31:59;;;;;;;4.23;3.93;;;26.40;95.30;;;;;;5008923;28;20496;-75
2022/05/17 10:34:38;;;;;;;3.10;2.90;;;25.90;95.50;;;;;;5009568;28;20839;-75
2022/05/17 10:37:12;;;;;;;8.57;3.77;;;25.40;95.60;;;;;;5009315;28;20943;-75
2022/05/17 10:39:44;;;;;;;6.47;3.40;;;25.20;96.10;;;;;;5008168;28;20470;-75
2022/05/17 10:42:10;;;;;;;3.77;3.23;;;24.90;96.20;;;;;;5009416;28;20988;-75
2022/05/17 10:44:40;;;;;;;7.20;3.60;;;24.80;97.20;;;;;;5008854;28;20488;-75
2022/05/17 10:47:15;;;;;;;4.03;3.07;;;24.60;98.40;;;;;;5009856;28;20465;-75
2022/05/17 10:49:56;;;;;;;3.50;3.10;;;24.50;97.50;;;;;;5008853;28;20461;-75
2022/05/17 10:52:32;;;;;;;4.43;3.37;;;24.40;97.60;;;;;;5008217;28;20845;-75
2022/05/17 10:55:06;;;;;;;6.30;3.50;;;24.20;96.70;;;;;;5008763;28;21058;-76
2022/05/17 10:57:44;;;;;;;7.10;3.90;;;24.20;97.90;;;;;;5009046;28;20461;-75
2022/05/17 11:00:18;;;;;;;3.67;3.37;;;24.20;97.20;;;;;;5008756;28;20831;-74
2022/05/17 11:03:25;;;;;;;3.10;2.80;;;24.50;98.90;;;;;;5008865;28;20512;-75
2022/05/17 11:06:03;;;;;;;4.90;3.40;;;25.10;98.90;;;;;;5009664;28;20457;-75
2022/05/17 11:08:39;;;;;;;4.53;3.30;;;25.70;97.80;;;;;;5009016;28;20457;-75
2022/05/17 11:11:28;;;;;;;3.93;3.33;;;26.20;98.10;;;;;;5010057;28;20460;-76
2022/05/17 11:14:00;;;;;;;4.43;3.60;;;26.50;97.40;;;;;;4990079;28;20470;-76
2022/05/17 11:16:36;;;;;;;3.53;3.23;;;26.60;96.90;;;;;;4989578;28;20465;-76
2022/05/17 11:19:10;;;;;;;5.43;3.43;;;26.90;97.40;;;;;;4989374;28;20461;-74
2022/05/17 11:21:41;;;;;;;6.17;3.80;;;27.30;96.60;;;;;;4989644;28;20493;-75
2022/05/17 11:24:20;;;;;;;4.40;3.80;;;27.40;95.80;;;;;;5087223;23;20558;-94
2022/05/17 11:27:07;;;;;;;4.67;2.90;;;27.50;95.40;;;;;;5078692;28;20853;-92
2022/05/17 11:30:14;;;;;;;4.17;3.77;;;27.70;94.60;;;;;;5079839;28;20877;-91
2022/05/17 11:33:02;;;;;;;3.37;2.87;;;27.70;92.40;;;;;;5034846;28;20485;-92
2022/05/17 11:35:51;;;;;;;5.30;3.70;;;27.70;93.50;;;;;;5076741;28;20474;-91
2022/05/17 11:38:21;;;;;;;4.10;2.83;;;27.90;93.50;;;;;;5089584;28;20458;-93
2022/05/17 11:40:59;;;;;;;4.77;3.50;;;27.90;94.70;;;;;;5071292;28;20466;-92
2022/05/17 11:44:13;;;;;;;3.10;2.80;;;28.10;92.90;;;;;;5068760;28;20489;-93
2022/05/17 11:46:51;;;;;;;3.33;3.03;;;28.30;92.40;;;;;;5050056;28;20463;-93
2022/05/17 11:49:45;;;;;;;4.33;3.07;;;28.50;91.10;;;;;;5077876;28;20443;-93
2022/05/17 11:52:26;;;;;;;4.00;3.60;;;28.30;93.00;;;;;;5076113;28;20480;-94
2022/05/17 11:54:55;;;;;;;5.10;2.90;;;28.20;93.00;;;;;;5075129;28;20446;-94
2022/05/17 11:58:03;;;;;;;5.73;3.53;;;28.20;92.50;;;;;;5075168;28;20461;-92
2022/05/17 12:00:45;;;;;;;4.60;3.10;;;28.10;92.60;;;;;;5068525;28;20458;-93
2022/05/17 12:03:54;;;;;;;5.07;3.50;;;28.20;92.70;;;;;;5066163;28;20507;-93
2022/05/17 12:06:44;;;;;;;3.63;3.13;;;28.30;93.70;;;;;;5071715;28;20490;-93
2022/05/17 12:09:29;;;;;;;3.80;3.03;;;28.60;93.30;;;;;;5074538;28;20499;-93
2022/05/17 12:12:29;;;;;;;7.13;3.30;;;28.70;92.60;;;;;;5072393;28;20464;-92
2022/05/17 12:15:11;;;;;;;2.80;2.27;;;28.80;89.90;;;;;;5072106;28;20453;-95
2022/05/17 12:17:58;;;;;;;3.47;2.57;;;28.70;91.10;;;;;;5075660;28;20441;-93
2022/05/17 12:26:21;;;;;;;3.77;3.17;;;26.80;91.60;;;;;;5068482;28;20471;-70
2022/05/17 12:28:53;;;;;;;4.10;2.77;;;26.50;92.20;;;;;;5069373;28;20541;-71
2022/05/17 12:31:25;;;;;;;3.40;2.80;;;26.30;92.70;;;;;;5067705;28;20466;-72
2022/05/17 12:33:53;;;;;;;3.27;2.60;;;26.40;92.00;;;;;;5049418;28;20874;-74
2022/05/17 12:36:23;;;;;;;3.30;2.90;;;26.50;90.40;;;;;;5050004;28;20467;-74
2022/05/17 12:44:32;;;;;;;4.43;2.90;;;26.60;92.70;;;;;;5049524;28;20482;-73
2022/05/17 12:47:00;;;;;;;3.27;2.97;;;27.00;92.60;;;;;;5049502;28;20470;-74
2022/05/17 12:49:30;;;;;;;6.90;2.63;;;27.40;94.00;;;;;;5048294;28;20558;-71
2022/05/17 12:52:00;;;;;;;3.40;3.10;;;27.70;91.60;;;;;;5049930;28;20477;-70
2022/05/17 12:54:29;;;;;;;3.10;2.70;;;27.90;90.70;;;;;;5049279;28;20496;-70
2022/05/17 12:56:59;;;;;;;2.90;2.63;;;28.00;91.40;;;;;;5049370;28;20459;-69
2022/05/17 12:59:29;;;;;;;3.03;2.70;;;28.10;92.70;;;;;;5049514;28;20511;-70
2022/05/17 13:01:57;;;;;;;3.37;2.50;;;28.00;90.80;;;;;;5050073;28;20555;-71
2022/05/17 13:04:30;;;;;;;2.77;1.97;;;27.50;89.60;;;;;;5049712;28;20910;-70
2022/05/17 13:07:12;;;;;;;2.53;2.33;;;27.10;90.90;;;;;;5049747;28;20462;-70
2022/05/17 13:09:52;;;;;;;3.63;2.40;;;26.90;89.60;;;;;;5049746;28;20839;-70
2022/05/17 13:12:20;;;;;;;2.10;1.90;;;26.80;90.60;;;;;;5048906;28;20483;-69
2022/05/17 13:14:50;;;;;;;3.63;2.20;;;26.90;90.80;;;;;;5050123;28;20459;-70
2022/05/17 13:17:28;;;;;;;3.00;2.40;;;27.00;91.30;;;;;;5049885;28;20493;-70
2022/05/17 13:20:00;;;;;;;3.00;2.20;;;27.30;89.90;;;;;;5053851;28;20497;-70
2022/05/17 13:22:27;;;;;;;2.33;2.13;;;27.40;87.70;;;;;;5054267;28;20491;-69
2022/05/17 13:25:02;;;;;;;2.90;2.43;;;27.70;90.40;;;;;;5047288;28;20479;-70
2022/05/17 13:27:33;;;;;;;4.37;2.50;;;27.90;88.40;;;;;;5053324;28;20537;-69
2022/05/17 13:30:03;;;;;;;3.63;2.80;;;27.90;89.30;;;;;;5052474;28;20479;-69
2022/05/17 13:32:36;;;;;;;4.40;1.73;;;28.00;91.30;;;;;;5052886;28;20483;-69
2022/05/17 13:35:22;;;;;;;3.63;2.13;;;28.20;90.50;;;;;;5052526;28;20484;-70
2022/05/17 13:38:02;;;;;;;2.97;2.13;;;28.40;90.10;;;;;;5053703;28;20518;-71
2022/05/17 13:40:38;;;;;;;4.77;2.47;;;28.30;89.00;;;;;;5053270;28;20554;-69
2022/05/17 13:43:23;;;;;;;3.17;2.60;;;28.20;84.90;;;;;;5051635;28;20998;-70
2022/05/17 13:46:06;;;;;;;2.80;2.50;;;28.00;87.80;;;;;;5052981;28;20483;-71
2022/05/17 13:48:33;;;;;;;3.10;2.33;;;28.00;89.50;;;;;;5052518;28;20518;-72